sensor_id;sensor_type;location;lat;lon;timestamp;pressure;altitude;pressure_sealevel;temperature;humidity
61039;BME280;46919;45.816;3.104;2023-03-21T00:01:54;98019.72;;;3.85;87.52
61039;BME280;46919;45.816;3.104;2023-03-21T00:04:21;98010.22;;;3.82;87.49
61039;BME280;46919;45.816;3.104;2023-03-21T00:06:46;98010.75;;;3.77;87.94
61039;BME280;46919;45.816;3.104;2023-03-21T00:09:11;98010.47;;;3.72;88.44
61039;BME280;46919;45.816;3.104;2023-03-21T00:11:37;98003.66;;;3.70;89.19
61039;BME280;46919;45.816;3.104;2023-03-21T00:14:02;98004.47;;;3.70;88.31
61039;BME280;46919;45.816;3.104;2023-03-21T00:16:28;98005.81;;;3.66;88.50
61039;BME280;46919;45.816;3.104;2023-03-21T00:18:57;98000.00;;;3.62;88.83
61039;BME280;46919;45.816;3.104;2023-03-21T00:21:23;97997.69;;;3.59;88.48
61039;BME280;46919;45.816;3.104;2023-03-21T00:23:53;97998.56;;;3.52;88.51
61039;BME280;46919;45.816;3.104;2023-03-21T00:26:19;97997.28;;;3.48;88.86
61039;BME280;46919;45.816;3.104;2023-03-21T00:28:47;97996.44;;;3.47;89.12
61039;BME280;46919;45.816;3.104;2023-03-21T00:31:12;97988.22;;;3.49;89.37
61039;BME280;46919;45.816;3.104;2023-03-21T00:33:38;97992.41;;;3.51;89.10
61039;BME280;46919;45.816;3.104;2023-03-21T00:36:04;97991.59;;;3.51;88.15
61039;BME280;46919;45.816;3.104;2023-03-21T00:38:29;97989.44;;;3.46;88.29
61039;BME280;46919;45.816;3.104;2023-03-21T00:40:55;97985.25;;;3.43;88.96
61039;BME280;46919;45.816;3.104;2023-03-21T00:43:21;97981.47;;;3.38;89.39
61039;BME280;46919;45.816;3.104;2023-03-21T00:45:55;97983.66;;;3.34;90.02
61039;BME280;46919;45.816;3.104;2023-03-21T00:48:21;97982.34;;;3.30;89.93
61039;BME280;46919;45.816;3.104;2023-03-21T00:50:47;97980.38;;;3.24;90.18
61039;BME280;46919;45.816;3.104;2023-03-21T00:53:14;97992.75;;;3.17;90.34
61039;BME280;46919;45.816;3.104;2023-03-21T00:55:40;97987.06;;;3.20;90.05
61039;BME280;46919;45.816;3.104;2023-03-21T00:58:06;97988.28;;;3.17;90.29
61039;BME280;46919;45.816;3.104;2023-03-21T01:00:32;97982.38;;;3.22;89.87
61039;BME280;46919;45.816;3.104;2023-03-21T01:02:58;97995.91;;;3.20;90.54
61039;BME280;46919;45.816;3.104;2023-03-21T01:05:31;97982.09;;;3.17;90.34
61039;BME280;46919;45.816;3.104;2023-03-21T01:08:17;97988.63;;;3.14;90.98
61039;BME280;46919;45.816;3.104;2023-03-21T01:10:45;97982.94;;;3.09;90.95
61039;BME280;46919;45.816;3.104;2023-03-21T01:13:13;97988.47;;;3.07;91.01
61039;BME280;46919;45.816;3.104;2023-03-21T01:15:50;97981.66;;;3.05;90.92
61039;BME280;46919;45.816;3.104;2023-03-21T01:18:18;97975.47;;;3.04;91.22
61039;BME280;46919;45.816;3.104;2023-03-21T01:20:44;97972.84;;;2.96;91.19
61039;BME280;46919;45.816;3.104;2023-03-21T01:23:11;97964.53;;;2.91;91.45
61039;BME280;46919;45.816;3.104;2023-03-21T01:25:37;97966.91;;;2.86;91.39
61039;BME280;46919;45.816;3.104;2023-03-21T01:28:04;97957.72;;;2.80;91.91
61039;BME280;46919;45.816;3.104;2023-03-21T01:30:30;97957.91;;;2.79;91.59
61039;BME280;46919;45.816;3.104;2023-03-21T01:32:56;97957.25;;;2.77;92.57
61039;BME280;46919;45.816;3.104;2023-03-21T01:35:21;97964.09;;;2.79;92.04
61039;BME280;46919;45.816;3.104;2023-03-21T01:37:47;97955.72;;;2.82;91.88
61039;BME280;46919;45.816;3.104;2023-03-21T01:40:24;97951.06;;;2.84;92.37
61039;BME280;46919;45.816;3.104;2023-03-21T01:42:50;97952.88;;;2.84;92.65
61039;BME280;46919;45.816;3.104;2023-03-21T01:48:19;97937.94;;;2.75;92.56
61039;BME280;46919;45.816;3.104;2023-03-21T01:50:45;97946.91;;;2.74;92.05
61039;BME280;46919;45.816;3.104;2023-03-21T01:53:11;97939.44;;;2.69;93.08
61039;BME280;46919;45.816;3.104;2023-03-21T01:55:38;97941.63;;;2.65;93.18
61039;BME280;46919;45.816;3.104;2023-03-21T01:58:05;97942.97;;;2.61;93.33
61039;BME280;46919;45.816;3.104;2023-03-21T02:00:33;97935.13;;;2.60;92.80
61039;BME280;46919;45.816;3.104;2023-03-21T02:03:02;97940.97;;;2.63;93.58
61039;BME280;46919;45.816;3.104;2023-03-21T02:08:08;97932.97;;;2.55;93.03
61039;BME280;46919;45.816;3.104;2023-03-21T02:10:33;97931.97;;;2.56;93.60
61039;BME280;46919;45.816;3.104;2023-03-21T02:13:02;97929.66;;;2.53;93.21
61039;BME280;46919;45.816;3.104;2023-03-21T02:15:33;97929.53;;;2.46;93.86
61039;BME280;46919;45.816;3.104;2023-03-21T02:37:23;97931.72;;;2.34;94.52
61039;BME280;46919;45.816;3.104;2023-03-21T02:40:19;97913.72;;;2.37;93.87
61039;BME280;46919;45.816;3.104;2023-03-21T02:42:54;97923.06;;;2.32;94.40
61039;BME280;46919;45.816;3.104;2023-03-21T02:45:35;97925.25;;;2.29;94.62
61039;BME280;46919;45.816;3.104;2023-03-21T02:48:08;97924.06;;;2.23;95.43
61039;BME280;46919;45.816;3.104;2023-03-21T02:53:03;97915.09;;;2.24;94.84
61039;BME280;46919;45.816;3.104;2023-03-21T02:55:32;97914.59;;;2.21;95.67
61039;BME280;46919;45.816;3.104;2023-03-21T02:57:59;97915.28;;;2.14;95.78
61039;BME280;46919;45.816;3.104;2023-03-21T03:00:29;97911.25;;;2.18;95.35
61039;BME280;46919;45.816;3.104;2023-03-21T03:02:56;97908.75;;;2.17;95.30
61039;BME280;46919;45.816;3.104;2023-03-21T03:05:27;97908.44;;;2.12;95.70
61039;BME280;46919;45.816;3.104;2023-03-21T03:08:16;97906.78;;;2.11;96.00
61039;BME280;46919;45.816;3.104;2023-03-21T03:16:46;97911.44;;;2.09;96.25
61039;BME280;46919;45.816;3.104;2023-03-21T03:19:34;97905.94;;;2.10;96.31
61039;BME280;46919;45.816;3.104;2023-03-21T03:22:20;97902.47;;;2.10;95.09
61039;BME280;46919;45.816;3.104;2023-03-21T03:24:57;97903.63;;;2.07;95.92
61039;BME280;46919;45.816;3.104;2023-03-21T03:27:28;97894.97;;;2.05;96.39
61039;BME280;46919;45.816;3.104;2023-03-21T03:29:58;97900.47;;;2.04;96.80
61039;BME280;46919;45.816;3.104;2023-03-21T03:32:35;97909.13;;;2.06;96.64
61039;BME280;46919;45.816;3.104;2023-03-21T03:35:02;97903.16;;;2.04;96.14
61039;BME280;46919;45.816;3.104;2023-03-21T03:37:32;97901.31;;;1.96;97.06
61039;BME280;46919;45.816;3.104;2023-03-21T03:42:51;97901.81;;;1.99;96.46
61039;BME280;46919;45.816;3.104;2023-03-21T03:45:19;97907.47;;;1.96;97.35
61039;BME280;46919;45.816;3.104;2023-03-21T03:50:41;97899.16;;;1.91;97.31
61039;BME280;46919;45.816;3.104;2023-03-21T03:55:55;97901.19;;;1.89;98.53
61039;BME280;46919;45.816;3.104;2023-03-21T03:58:22;97897.66;;;1.89;98.87
61039;BME280;46919;45.816;3.104;2023-03-21T04:00:48;97895.81;;;1.97;98.15
61039;BME280;46919;45.816;3.104;2023-03-21T04:03:14;97893.50;;;1.94;98.02
61039;BME280;46919;45.816;3.104;2023-03-21T04:05:40;97894.66;;;1.92;97.79
61039;BME280;46919;45.816;3.104;2023-03-21T04:08:09;97895.47;;;2.01;97.49
61039;BME280;46919;45.816;3.104;2023-03-21T04:10:34;97897.16;;;1.93;97.96
61039;BME280;46919;45.816;3.104;2023-03-21T04:12:59;97913.00;;;1.87;98.45
61039;BME280;46919;45.816;3.104;2023-03-21T04:15:25;97907.19;;;1.83;99.35
61039;BME280;46919;45.816;3.104;2023-03-21T04:17:50;97907.66;;;1.87;99.24
61039;BME280;46919;45.816;3.104;2023-03-21T04:20:16;97910.16;;;1.88;99.03
61039;BME280;46919;45.816;3.104;2023-03-21T04:22:41;97916.50;;;1.87;99.27
61039;BME280;46919;45.816;3.104;2023-03-21T04:25:07;97905.16;;;1.85;98.77
61039;BME280;46919;45.816;3.104;2023-03-21T04:27:33;97912.66;;;1.90;97.82
61039;BME280;46919;45.816;3.104;2023-03-21T04:29:59;97914.50;;;1.89;97.37
61039;BME280;46919;45.816;3.104;2023-03-21T04:32:25;97910.81;;;1.90;98.04
61039;BME280;46919;45.816;3.104;2023-03-21T04:34:51;97915.34;;;1.81;98.48
61039;BME280;46919;45.816;3.104;2023-03-21T04:37:20;97910.34;;;1.78;98.49
61039;BME280;46919;45.816;3.104;2023-03-21T04:39:48;97918.50;;;1.77;99.43
61039;BME280;46919;45.816;3.104;2023-03-21T04:42:14;97918.19;;;1.72;100.00
61039;BME280;46919;45.816;3.104;2023-03-21T04:44:40;97920.16;;;1.70;99.75
61039;BME280;46919;45.816;3.104;2023-03-21T04:47:06;97913.69;;;1.64;99.61
61039;BME280;46919;45.816;3.104;2023-03-21T04:49:31;97922.50;;;1.73;99.18
61039;BME280;46919;45.816;3.104;2023-03-21T04:51:57;97920.50;;;1.83;98.79
61039;BME280;46919;45.816;3.104;2023-03-21T04:54:23;97917.00;;;1.83;99.06
61039;BME280;46919;45.816;3.104;2023-03-21T04:56:48;97917.34;;;1.71;99.40
61039;BME280;46919;45.816;3.104;2023-03-21T04:59:17;97910.84;;;1.66;99.91
61039;BME280;46919;45.816;3.104;2023-03-21T05:01:44;97917.88;;;1.67;99.53
61039;BME280;46919;45.816;3.104;2023-03-21T05:04:11;97920.84;;;1.72;98.87
61039;BME280;46919;45.816;3.104;2023-03-21T05:06:37;97916.19;;;1.66;99.15
61039;BME280;46919;45.816;3.104;2023-03-21T05:09:03;97921.34;;;1.59;100.00
61039;BME280;46919;45.816;3.104;2023-03-21T05:11:30;97924.19;;;1.66;98.93
61039;BME280;46919;45.816;3.104;2023-03-21T05:13:57;97924.00;;;1.67;99.33
61039;BME280;46919;45.816;3.104;2023-03-21T05:16:23;97920.84;;;1.63;99.81
61039;BME280;46919;45.816;3.104;2023-03-21T05:18:53;97928.00;;;1.63;100.00
61039;BME280;46919;45.816;3.104;2023-03-21T05:21:20;97925.50;;;1.61;99.91
61039;BME280;46919;45.816;3.104;2023-03-21T05:23:46;97923.84;;;1.60;99.83
61039;BME280;46919;45.816;3.104;2023-03-21T05:26:22;97930.50;;;1.56;100.00
61039;BME280;46919;45.816;3.104;2023-03-21T05:28:48;97928.50;;;1.58;100.00
61039;BME280;46919;45.816;3.104;2023-03-21T05:31:15;97926.50;;;1.52;99.61
61039;BME280;46919;45.816;3.104;2023-03-21T05:33:42;97928.66;;;1.49;100.00
61039;BME280;46919;45.816;3.104;2023-03-21T05:36:08;97925.50;;;1.45;100.00
61039;BME280;46919;45.816;3.104;2023-03-21T05:38:33;97922.53;;;1.40;100.00
61039;BME280;46919;45.816;3.104;2023-03-21T05:40:59;97924.81;;;1.35;100.00
61039;BME280;46919;45.816;3.104;2023-03-21T05:43:25;97936.81;;;1.39;100.00
61039;BME280;46919;45.816;3.104;2023-03-21T05:45:50;97931.50;;;1.47;100.00
61039;BME280;46919;45.816;3.104;2023-03-21T05:48:16;97925.50;;;1.45;100.00
61039;BME280;46919;45.816;3.104;2023-03-21T05:50:41;97925.19;;;1.40;100.00
61039;BME280;46919;45.816;3.104;2023-03-21T05:53:07;97930.50;;;1.48;100.00
61039;BME280;46919;45.816;3.104;2023-03-21T05:55:32;97924.34;;;1.48;99.77
61039;BME280;46919;45.816;3.104;2023-03-21T05:57:58;97927.50;;;1.43;100.00
61039;BME280;46919;45.816;3.104;2023-03-21T06:00:23;97944.00;;;1.38;100.00
61039;BME280;46919;45.816;3.104;2023-03-21T06:02:49;97941.81;;;1.42;100.00
61039;BME280;46919;45.816;3.104;2023-03-21T06:05:14;97952.31;;;1.43;100.00
61039;BME280;46919;45.816;3.104;2023-03-21T06:07:40;97945.13;;;1.44;100.00
61039;BME280;46919;45.816;3.104;2023-03-21T06:10:06;97935.50;;;1.43;100.00
61039;BME280;46919;45.816;3.104;2023-03-21T06:12:32;97961.47;;;1.49;100.00
61039;BME280;46919;45.816;3.104;2023-03-21T06:14:57;97949.47;;;1.53;100.00
61039;BME280;46919;45.816;3.104;2023-03-21T06:17:23;97965.63;;;1.60;100.00
61039;BME280;46919;45.816;3.104;2023-03-21T06:19:49;97962.78;;;1.61;100.00
61039;BME280;46919;45.816;3.104;2023-03-21T06:22:14;97961.47;;;1.66;100.00
61039;BME280;46919;45.816;3.104;2023-03-21T06:24:40;97960.31;;;1.76;100.00
61039;BME280;46919;45.816;3.104;2023-03-21T06:27:06;97963.13;;;1.83;100.00
61039;BME280;46919;45.816;3.104;2023-03-21T06:29:31;97962.13;;;1.92;100.00
61039;BME280;46919;45.816;3.104;2023-03-21T06:31:57;97960.13;;;2.03;100.00
61039;BME280;46919;45.816;3.104;2023-03-21T06:34:22;97974.75;;;2.15;100.00
61039;BME280;46919;45.816;3.104;2023-03-21T06:36:47;97966.41;;;2.26;100.00
61039;BME280;46919;45.816;3.104;2023-03-21T06:39:13;97962.06;;;2.33;100.00
61039;BME280;46919;45.816;3.104;2023-03-21T06:41:40;97961.06;;;2.43;100.00
61039;BME280;46919;45.816;3.104;2023-03-21T06:44:06;97957.03;;;2.47;99.36
61039;BME280;46919;45.816;3.104;2023-03-21T06:46:31;97958.50;;;2.58;100.00
61039;BME280;46919;45.816;3.104;2023-03-21T06:48:57;97955.75;;;2.74;99.46
61039;BME280;46919;45.816;3.104;2023-03-21T06:51:22;97958.72;;;2.87;99.36
61039;BME280;46919;45.816;3.104;2023-03-21T06:53:48;97960.16;;;2.98;99.27
61039;BME280;46919;45.816;3.104;2023-03-21T06:56:14;97960.41;;;3.12;99.42
61039;BME280;46919;45.816;3.104;2023-03-21T06:58:40;97966.34;;;3.22;99.19
61039;BME280;46919;45.816;3.104;2023-03-21T07:01:06;97959.31;;;3.29;98.94
61039;BME280;46919;45.816;3.104;2023-03-21T07:03:32;97959.91;;;3.39;99.31
61039;BME280;46919;45.816;3.104;2023-03-21T07:06:06;97955.34;;;3.48;99.20
61039;BME280;46919;45.816;3.104;2023-03-21T07:08:34;97959.44;;;3.59;99.20
61039;BME280;46919;45.816;3.104;2023-03-21T07:10:59;97952.50;;;3.73;98.68
61039;BME280;46919;45.816;3.104;2023-03-21T07:13:25;97956.75;;;3.82;98.25
61039;BME280;46919;45.816;3.104;2023-03-21T07:15:51;97956.88;;;3.89;97.79
61039;BME280;46919;45.816;3.104;2023-03-21T07:18:18;97959.13;;;4.00;98.00
61039;BME280;46919;45.816;3.104;2023-03-21T07:20:46;97963.84;;;4.13;98.00
61039;BME280;46919;45.816;3.104;2023-03-21T07:23:21;97961.53;;;4.25;97.21
61039;BME280;46919;45.816;3.104;2023-03-21T07:25:49;97966.25;;;4.38;96.72
61039;BME280;46919;45.816;3.104;2023-03-21T07:28:15;97968.97;;;4.52;95.93
61039;BME280;46919;45.816;3.104;2023-03-21T07:30:42;97971.00;;;4.65;95.67
61039;BME280;46919;45.816;3.104;2023-03-21T07:33:07;97967.22;;;4.75;95.57
61039;BME280;46919;45.816;3.104;2023-03-21T07:35:34;97977.63;;;4.84;94.82
61039;BME280;46919;45.816;3.104;2023-03-21T07:38:01;97983.50;;;4.95;94.05
61039;BME280;46919;45.816;3.104;2023-03-21T07:40:26;97982.78;;;5.01;93.88
61039;BME280;46919;45.816;3.104;2023-03-21T07:42:52;97981.56;;;5.03;93.61
61039;BME280;46919;45.816;3.104;2023-03-21T07:45:17;97990.25;;;5.05;93.56
61039;BME280;46919;45.816;3.104;2023-03-21T07:47:46;97986.63;;;5.13;93.66
61039;BME280;46919;45.816;3.104;2023-03-21T07:50:12;97993.56;;;5.22;93.36
61039;BME280;46919;45.816;3.104;2023-03-21T07:52:38;97990.94;;;5.29;92.89
61039;BME280;46919;45.816;3.104;2023-03-21T07:55:04;97987.59;;;5.42;92.31
61039;BME280;46919;45.816;3.104;2023-03-21T07:57:30;97986.69;;;5.56;91.45
61039;BME280;46919;45.816;3.104;2023-03-21T07:59:56;97991.19;;;5.71;91.00
61039;BME280;46919;45.816;3.104;2023-03-21T08:02:21;97987.09;;;5.75;90.56
61039;BME280;46919;45.816;3.104;2023-03-21T08:04:46;97989.66;;;5.83;89.85
61039;BME280;46919;45.816;3.104;2023-03-21T08:07:12;97989.50;;;5.91;89.40
61039;BME280;46919;45.816;3.104;2023-03-21T08:09:37;97991.63;;;5.96;88.95
61039;BME280;46919;45.816;3.104;2023-03-21T08:12:04;97982.66;;;6.04;88.76
61039;BME280;46919;45.816;3.104;2023-03-21T08:14:32;97987.28;;;6.16;87.83
61039;BME280;46919;45.816;3.104;2023-03-21T08:16:58;97987.22;;;6.31;86.80
61039;BME280;46919;45.816;3.104;2023-03-21T08:19:24;97986.88;;;6.41;86.34
61039;BME280;46919;45.816;3.104;2023-03-21T08:21:51;97992.31;;;6.55;86.44
61039;BME280;46919;45.816;3.104;2023-03-21T08:24:17;97984.34;;;6.68;85.00
61039;BME280;46919;45.816;3.104;2023-03-21T08:26:42;97986.88;;;6.76;84.44
61039;BME280;46919;45.816;3.104;2023-03-21T08:29:12;97986.13;;;6.89;83.91
61039;BME280;46919;45.816;3.104;2023-03-21T08:31:40;97980.38;;;6.99;82.34
61039;BME280;46919;45.816;3.104;2023-03-21T08:34:06;97985.19;;;7.17;81.71
61039;BME280;46919;45.816;3.104;2023-03-21T08:36:32;97990.03;;;7.28;80.58
61039;BME280;46919;45.816;3.104;2023-03-21T08:38:57;97973.53;;;7.44;80.22
61039;BME280;46919;45.816;3.104;2023-03-21T08:41:33;97975.22;;;7.59;79.92
61039;BME280;46919;45.816;3.104;2023-03-21T08:43:59;97978.56;;;7.74;78.89
61039;BME280;46919;45.816;3.104;2023-03-21T08:46:25;97976.94;;;7.87;78.36
61039;BME280;46919;45.816;3.104;2023-03-21T08:48:51;97976.94;;;8.00;78.86
61039;BME280;46919;45.816;3.104;2023-03-21T08:51:16;97981.06;;;8.16;77.51
61039;BME280;46919;45.816;3.104;2023-03-21T08:53:42;97975.69;;;8.29;76.86
61039;BME280;46919;45.816;3.104;2023-03-21T08:56:09;97971.34;;;8.48;75.28
61039;BME280;46919;45.816;3.104;2023-03-21T08:58:35;97972.78;;;8.71;73.58
61039;BME280;46919;45.816;3.104;2023-03-21T09:01:01;97970.03;;;8.84;72.66
61039;BME280;46919;45.816;3.104;2023-03-21T09:03:26;97973.50;;;9.05;72.65
61039;BME280;46919;45.816;3.104;2023-03-21T09:05:53;97967.19;;;9.24;71.83
61039;BME280;46919;45.816;3.104;2023-03-21T09:08:18;97977.66;;;9.46;71.13
61039;BME280;46919;45.816;3.104;2023-03-21T09:10:53;97965.06;;;9.72;70.48
61039;BME280;46919;45.816;3.104;2023-03-21T09:13:19;97969.75;;;9.90;69.48
61039;BME280;46919;45.816;3.104;2023-03-21T09:15:45;97962.34;;;10.04;68.85
61039;BME280;46919;45.816;3.104;2023-03-21T09:18:10;97957.03;;;10.22;68.08
61039;BME280;46919;45.816;3.104;2023-03-21T09:20:41;97954.00;;;10.37;67.04
61039;BME280;46919;45.816;3.104;2023-03-21T09:23:07;97958.47;;;10.50;66.96
61039;BME280;46919;45.816;3.104;2023-03-21T09:25:33;97956.78;;;10.74;67.11
61039;BME280;46919;45.816;3.104;2023-03-21T09:28:01;97952.28;;;10.86;66.88
61039;BME280;46919;45.816;3.104;2023-03-21T09:30:28;97941.50;;;10.80;64.58
61039;BME280;46919;45.816;3.104;2023-03-21T09:32:54;97939.50;;;10.94;63.90
61039;BME280;46919;45.816;3.104;2023-03-21T09:35:20;97931.75;;;11.16;63.72
61039;BME280;46919;45.816;3.104;2023-03-21T09:37:47;97939.88;;;11.46;63.32
61039;BME280;46919;45.816;3.104;2023-03-21T09:43:22;97929.56;;;11.97;62.87
61039;BME280;46919;45.816;3.104;2023-03-21T09:46:08;97928.41;;;11.93;61.92
61039;BME280;46919;45.816;3.104;2023-03-21T09:48:49;97926.34;;;11.88;61.50
61039;BME280;46919;45.816;3.104;2023-03-21T09:51:19;97924.03;;;12.04;61.61
61039;BME280;46919;45.816;3.104;2023-03-21T09:53:47;97909.81;;;12.20;61.37
61039;BME280;46919;45.816;3.104;2023-03-21T09:56:15;97905.09;;;12.16;61.50
61039;BME280;46919;45.816;3.104;2023-03-21T09:58:47;97904.19;;;12.22;60.98
61039;BME280;46919;45.816;3.104;2023-03-21T10:01:30;97902.97;;;12.41;60.34
61039;BME280;46919;45.816;3.104;2023-03-21T10:04:10;97906.38;;;12.60;60.10
61039;BME280;46919;45.816;3.104;2023-03-21T10:06:38;97907.78;;;12.86;59.76
61039;BME280;46919;45.816;3.104;2023-03-21T10:09:10;97911.78;;;12.96;58.72
61039;BME280;46919;45.816;3.104;2023-03-21T10:11:41;97912.09;;;12.99;58.11
61039;BME280;46919;45.816;3.104;2023-03-21T10:14:16;97922.88;;;13.35;58.10
61039;BME280;46919;45.816;3.104;2023-03-21T10:16:45;97913.28;;;13.44;58.43
61039;BME280;46919;45.816;3.104;2023-03-21T10:19:13;97922.28;;;13.62;58.18
61039;BME280;46919;45.816;3.104;2023-03-21T10:21:41;97919.66;;;13.67;57.49
61039;BME280;46919;45.816;3.104;2023-03-21T10:24:13;97925.94;;;13.67;57.71
61039;BME280;46919;45.816;3.104;2023-03-21T10:26:39;97917.44;;;13.64;56.91
61039;BME280;46919;45.816;3.104;2023-03-21T10:29:05;97923.94;;;13.63;56.70
61039;BME280;46919;45.816;3.104;2023-03-21T10:31:31;97926.91;;;13.78;55.67
61039;BME280;46919;45.816;3.104;2023-03-21T10:34:02;97922.91;;;13.81;54.77
61039;BME280;46919;45.816;3.104;2023-03-21T10:36:32;97928.78;;;13.89;54.58
61039;BME280;46919;45.816;3.104;2023-03-21T10:41:25;97920.22;;;13.98;53.42
61039;BME280;46919;45.816;3.104;2023-03-21T10:44:12;97910.22;;;14.03;53.35
61039;BME280;46919;45.816;3.104;2023-03-21T10:46:55;97904.38;;;14.11;53.14
61039;BME280;46919;45.816;3.104;2023-03-21T10:49:21;97909.00;;;14.11;52.67
61039;BME280;46919;45.816;3.104;2023-03-21T10:51:53;97909.19;;;14.21;52.41
61039;BME280;46919;45.816;3.104;2023-03-21T10:54:25;97913.19;;;14.36;52.61
61039;BME280;46919;45.816;3.104;2023-03-21T10:57:37;97904.06;;;14.42;51.96
61039;BME280;46919;45.816;3.104;2023-03-21T10:59:44;97906.69;;;14.37;51.66
61039;BME280;46919;45.816;3.104;2023-03-21T11:02:25;97906.28;;;14.45;51.67
61039;BME280;46919;45.816;3.104;2023-03-21T11:04:53;97898.69;;;14.47;51.60
61039;BME280;46919;45.816;3.104;2023-03-21T11:07:20;97902.38;;;14.58;51.47
61039;BME280;46919;45.816;3.104;2023-03-21T11:09:52;97903.28;;;14.63;50.66
61039;BME280;46919;45.816;3.104;2023-03-21T11:12:37;97898.69;;;14.64;49.51
61039;BME280;46919;45.816;3.104;2023-03-21T11:15:30;97904.97;;;14.87;49.10
61039;BME280;46919;45.816;3.104;2023-03-21T11:17:57;97908.06;;;14.95;49.32
61039;BME280;46919;45.816;3.104;2023-03-21T11:20:30;97900.09;;;15.11;49.09
61039;BME280;46919;45.816;3.104;2023-03-21T11:22:55;97908.31;;;15.16;50.07
61039;BME280;46919;45.816;3.104;2023-03-21T11:25:32;97907.59;;;15.26;49.87
61039;BME280;46919;45.816;3.104;2023-03-21T11:28:05;97906.19;;;15.18;48.88
61039;BME280;46919;45.816;3.104;2023-03-21T11:30:31;97899.69;;;15.24;49.40
61039;BME280;46919;45.816;3.104;2023-03-21T11:33:00;97893.81;;;15.32;49.20
61039;BME280;46919;45.816;3.104;2023-03-21T11:35:35;97898.50;;;15.37;49.30
61039;BME280;46919;45.816;3.104;2023-03-21T11:38:01;97889.03;;;15.45;49.06
61039;BME280;46919;45.816;3.104;2023-03-21T11:40:33;97899.56;;;15.63;49.40
61039;BME280;46919;45.816;3.104;2023-03-21T11:43:24;97888.03;;;15.78;48.67
61039;BME280;46919;45.816;3.104;2023-03-21T11:45:59;97888.63;;;15.85;47.38
61039;BME280;46919;45.816;3.104;2023-03-21T11:48:26;97889.59;;;16.01;48.79
61039;BME280;46919;45.816;3.104;2023-03-21T11:56:27;97876.59;;;16.51;45.69
61039;BME280;46919;45.816;3.104;2023-03-21T12:07:04;97861.75;;;16.84;45.65
61039;BME280;46919;45.816;3.104;2023-03-21T12:09:43;97857.03;;;16.70;45.26
61039;BME280;46919;45.816;3.104;2023-03-21T12:14:58;97851.22;;;16.56;44.25
61039;BME280;46919;45.816;3.104;2023-03-21T12:20:52;97853.41;;;16.54;45.05
61039;BME280;46919;45.816;3.104;2023-03-21T12:26:04;97846.44;;;16.73;44.81
61039;BME280;46919;45.816;3.104;2023-03-21T12:39:20;97831.66;;;16.69;44.99
61039;BME280;46919;45.816;3.104;2023-03-21T12:41:54;97826.19;;;16.64;45.71
61039;BME280;46919;45.816;3.104;2023-03-21T12:44:23;97823.91;;;16.51;45.27
61039;BME280;46919;45.816;3.104;2023-03-21T12:47:00;97828.84;;;16.54;44.41
61039;BME280;46919;45.816;3.104;2023-03-21T12:49:33;97822.56;;;16.53;45.06
61039;BME280;46919;45.816;3.104;2023-03-21T12:52:15;97820.66;;;16.54;42.92
61039;BME280;46919;45.816;3.104;2023-03-21T12:54:51;97826.09;;;16.48;45.21
61039;BME280;46919;45.816;3.104;2023-03-21T12:57:29;97825.06;;;16.60;43.96
61039;BME280;46919;45.816;3.104;2023-03-21T13:00:12;97826.97;;;16.59;45.38
61039;BME280;46919;45.816;3.104;2023-03-21T13:02:43;97829.69;;;16.54;45.77
61039;BME280;46919;45.816;3.104;2023-03-21T13:05:29;97826.38;;;16.52;46.44
61039;BME280;46919;45.816;3.104;2023-03-21T13:10:45;97821.69;;;16.42;46.45
61039;BME280;46919;45.816;3.104;2023-03-21T13:26:32;97815.97;;;15.96;46.72
61039;BME280;46919;45.816;3.104;2023-03-21T13:29:00;97802.25;;;15.86;47.27
61039;BME280;46919;45.816;3.104;2023-03-21T13:31:26;97809.56;;;15.80;47.12
61039;BME280;46919;45.816;3.104;2023-03-21T13:33:54;97802.66;;;15.72;47.35
61039;BME280;46919;45.816;3.104;2023-03-21T13:36:27;97800.13;;;15.61;46.95
61039;BME280;46919;45.816;3.104;2023-03-21T13:38:59;97802.78;;;15.55;48.23
61039;BME280;46919;45.816;3.104;2023-03-21T13:48:58;97813.72;;;15.28;50.09
61039;BME280;46919;45.816;3.104;2023-03-21T13:59:10;97786.19;;;14.97;53.23
61039;BME280;46919;45.816;3.104;2023-03-21T14:01:40;97805.25;;;14.97;54.14
61039;BME280;46919;45.816;3.104;2023-03-21T14:04:17;97801.50;;;15.03;54.57
61039;BME280;46919;45.816;3.104;2023-03-21T14:06:49;97803.75;;;15.12;56.73
61039;BME280;46919;45.816;3.104;2023-03-21T14:09:37;97813.09;;;15.21;58.78
61039;BME280;46919;45.816;3.104;2023-03-21T14:12:07;97813.91;;;15.49;58.74
61039;BME280;46919;45.816;3.104;2023-03-21T14:14:45;97804.88;;;15.75;57.83
61039;BME280;46919;45.816;3.104;2023-03-21T14:17:13;97811.88;;;15.99;57.18
61039;BME280;46919;45.816;3.104;2023-03-21T14:19:38;97802.44;;;16.11;55.89
61039;BME280;46919;45.816;3.104;2023-03-21T14:22:09;97805.06;;;16.39;54.67
61039;BME280;46919;45.816;3.104;2023-03-21T14:24:35;97802.72;;;16.68;54.72
61039;BME280;46919;45.816;3.104;2023-03-21T14:27:01;97796.03;;;16.91;53.80
61039;BME280;46919;45.816;3.104;2023-03-21T14:29:30;97799.81;;;16.90;53.52
61039;BME280;46919;45.816;3.104;2023-03-21T14:31:58;97795.66;;;16.82;52.66
61039;BME280;46919;45.816;3.104;2023-03-21T14:34:27;97788.03;;;16.79;51.87
61039;BME280;46919;45.816;3.104;2023-03-21T14:36:53;97799.47;;;16.76;52.26
61039;BME280;46919;45.816;3.104;2023-03-21T14:39:21;97789.66;;;16.80;52.26
61039;BME280;46919;45.816;3.104;2023-03-21T14:44:22;97801.72;;;16.84;51.07
61039;BME280;46919;45.816;3.104;2023-03-21T14:47:05;97791.00;;;16.67;50.42
61039;BME280;46919;45.816;3.104;2023-03-21T14:49:35;97787.44;;;16.67;51.47
61039;BME280;46919;45.816;3.104;2023-03-21T14:52:04;97791.28;;;16.71;52.54
61039;BME280;46919;45.816;3.104;2023-03-21T14:54:31;97787.38;;;16.52;51.60
61039;BME280;46919;45.816;3.104;2023-03-21T14:57:04;97784.03;;;16.39;50.59
61039;BME280;46919;45.816;3.104;2023-03-21T14:59:35;97779.88;;;16.21;51.07
61039;BME280;46919;45.816;3.104;2023-03-21T15:02:31;97774.34;;;16.11;50.21
61039;BME280;46919;45.816;3.104;2023-03-21T15:05:07;97769.13;;;16.04;50.16
61039;BME280;46919;45.816;3.104;2023-03-21T15:07:34;97783.28;;;16.01;50.55
61039;BME280;46919;45.816;3.104;2023-03-21T15:10:14;97768.50;;;15.92;50.76